createdAt,value
2023-02-15T00:00:30.927Z,17.80
2023-02-15T00:03:53.329Z,17.70
2023-02-15T00:07:17.776Z,17.80
2023-02-15T00:10:40.134Z,17.70
2023-02-15T00:14:02.347Z,17.70
2023-02-15T00:17:24.748Z,17.70
2023-02-15T00:20:46.987Z,17.70
2023-02-15T00:24:11.550Z,17.70
2023-02-15T00:27:35.039Z,17.70
2023-02-15T00:31:24.989Z,17.70
2023-02-15T00:34:47.237Z,17.70
2023-02-15T00:38:09.532Z,17.70
2023-02-15T00:41:33.100Z,17.70
2023-02-15T00:44:55.450Z,17.70
2023-02-15T00:48:17.828Z,17.70
2023-02-15T00:51:40.593Z,17.70
2023-02-15T00:55:02.901Z,17.70
2023-02-15T00:58:25.610Z,17.60
2023-02-15T01:01:47.893Z,17.60
2023-02-15T01:05:10.397Z,17.60
2023-02-15T01:08:33.326Z,17.60
2023-02-15T01:11:55.792Z,17.60
2023-02-15T01:15:18.271Z,17.60
2023-02-15T01:18:40.519Z,17.60
2023-02-15T01:22:04.017Z,17.60
2023-02-15T01:25:28.249Z,17.60
2023-02-15T01:28:51.089Z,17.60
2023-02-15T01:32:13.429Z,17.60
2023-02-15T01:35:38.265Z,17.60
2023-02-15T01:39:02.065Z,17.50
2023-02-15T01:42:28.366Z,17.60
2023-02-15T01:45:51.110Z,17.60
2023-02-15T01:49:17.626Z,17.60
2023-02-15T01:52:45.614Z,17.60
2023-02-15T01:56:15.945Z,17.60
2023-02-15T01:59:41.784Z,17.60
2023-02-15T02:03:05.051Z,17.60
2023-02-15T02:06:28.020Z,17.50
2023-02-15T02:09:50.794Z,17.50
2023-02-15T02:13:13.112Z,17.50
2023-02-15T02:16:57.260Z,17.50
2023-02-15T02:20:52.101Z,17.50
2023-02-15T02:24:51.884Z,17.50
2023-02-15T02:28:20.038Z,17.50
2023-02-15T02:31:46.798Z,17.50
2023-02-15T02:35:17.213Z,17.50
2023-02-15T02:39:00.649Z,17.50
2023-02-15T02:42:34.469Z,17.50
2023-02-15T02:46:05.045Z,17.50
2023-02-15T02:49:35.448Z,17.50
2023-02-15T02:52:59.443Z,17.40
2023-02-15T02:56:31.444Z,17.40
2023-02-15T02:59:58.690Z,17.40
2023-02-15T03:03:33.048Z,17.40
2023-02-15T03:07:00.342Z,17.40
2023-02-15T03:10:24.909Z,17.40
2023-02-15T03:13:49.860Z,17.40
2023-02-15T03:17:14.387Z,17.40
2023-02-15T03:20:38.856Z,17.40
2023-02-15T03:24:16.535Z,17.40
2023-02-15T03:27:44.771Z,17.30
2023-02-15T03:31:09.601Z,17.30
2023-02-15T03:34:32.015Z,17.30
2023-02-15T03:38:02.540Z,17.30
2023-02-15T03:41:30.222Z,17.40
2023-02-15T03:44:59.947Z,17.40
2023-02-15T03:48:48.097Z,17.40
2023-02-15T03:52:12.470Z,17.40
2023-02-15T03:55:35.870Z,17.40
2023-02-15T03:59:16.900Z,17.40
2023-02-15T04:03:10.127Z,17.40
2023-02-15T04:06:32.418Z,17.40
2023-02-15T04:10:13.112Z,17.40
2023-02-15T04:13:35.443Z,17.50
2023-02-15T04:16:57.632Z,17.50
2023-02-15T04:20:38.404Z,17.50
2023-02-15T04:24:19.091Z,17.50
2023-02-15T04:27:53.751Z,17.50
2023-02-15T04:31:16.075Z,17.50
2023-02-15T04:34:38.435Z,17.50
2023-02-15T04:38:00.941Z,17.50
2023-02-15T04:41:23.189Z,17.50
2023-02-15T04:44:45.431Z,17.50
2023-02-15T04:48:07.719Z,17.50
2023-02-15T04:51:30.276Z,17.50
2023-02-15T04:54:52.588Z,17.50
2023-02-15T04:58:14.802Z,17.50
2023-02-15T05:01:37.065Z,17.50
2023-02-15T05:04:59.295Z,17.40
2023-02-15T05:08:21.848Z,17.40
2023-02-15T05:11:44.154Z,17.50
2023-02-15T05:15:06.592Z,17.50
2023-02-15T05:18:28.860Z,17.50
2023-02-15T05:21:51.236Z,17.50
2023-02-15T05:25:32.006Z,17.60
2023-02-15T05:28:54.294Z,17.70
2023-02-15T05:32:16.702Z,17.70
2023-02-15T05:35:39.198Z,17.80
2023-02-15T05:39:01.567Z,17.80
2023-02-15T05:42:23.900Z,17.80
2023-02-15T05:45:50.722Z,17.90
2023-02-15T05:49:13.027Z,17.90
2023-02-15T05:52:35.829Z,17.90
2023-02-15T05:56:00.851Z,18.00
2023-02-15T05:59:23.904Z,18.00
2023-02-15T06:02:46.270Z,18.00
2023-02-15T06:06:09.047Z,18.00
2023-02-15T06:09:31.428Z,18.00
2023-02-15T06:12:53.666Z,18.10
2023-02-15T06:16:17.628Z,18.10
2023-02-15T06:19:39.921Z,18.10
2023-02-15T06:23:02.205Z,18.10
2023-02-15T06:26:24.502Z,18.10
2023-02-15T06:29:46.765Z,18.10
2023-02-15T06:33:09.153Z,18.10
2023-02-15T06:36:32.556Z,18.10
2023-02-15T06:39:55.089Z,18.10
2023-02-15T06:43:17.326Z,18.10
2023-02-15T06:46:39.763Z,18.10
2023-02-15T06:50:02.168Z,18.10
2023-02-15T06:53:24.572Z,18.10
2023-02-15T06:56:46.854Z,18.10
2023-02-15T07:00:09.621Z,18.20
2023-02-15T07:03:32.238Z,18.20
2023-02-15T07:06:54.508Z,18.20
2023-02-15T07:10:17.050Z,18.20
2023-02-15T07:13:39.331Z,18.20
2023-02-15T07:17:01.697Z,18.20
2023-02-15T07:20:25.081Z,18.10
2023-02-15T07:23:47.404Z,18.10
2023-02-15T07:27:09.682Z,18.10
2023-02-15T07:30:32.217Z,18.10
2023-02-15T07:33:54.546Z,18.10
2023-02-15T07:37:16.852Z,18.10
2023-02-15T07:40:39.083Z,18.10
2023-02-15T07:44:01.382Z,18.10
2023-02-15T07:47:23.678Z,18.10
2023-02-15T07:50:45.978Z,18.10
2023-02-15T07:54:08.520Z,18.10
2023-02-15T07:57:30.819Z,18.10
2023-02-15T08:00:59.180Z,18.00
2023-02-15T08:04:21.407Z,18.00
2023-02-15T08:07:43.660Z,18.00
2023-02-15T08:11:38.627Z,18.00
2023-02-15T08:15:00.916Z,18.00
2023-02-15T08:18:23.278Z,18.00
2023-02-15T08:21:48.380Z,18.00
2023-02-15T08:25:10.753Z,18.00
2023-02-15T08:28:33.029Z,18.00
2023-02-15T08:32:07.821Z,18.00
2023-02-15T08:35:30.177Z,18.00
2023-02-15T08:38:52.801Z,18.00
2023-02-15T08:42:15.048Z,18.00
2023-02-15T08:45:37.348Z,18.00
2023-02-15T08:49:00.045Z,18.00
2023-02-15T08:52:22.304Z,18.00
2023-02-15T08:55:44.778Z,17.90
2023-02-15T08:59:12.220Z,17.90
2023-02-15T09:02:34.719Z,17.90
2023-02-15T09:06:01.983Z,17.90
2023-02-15T09:09:24.297Z,17.90
2023-02-15T09:12:46.669Z,17.90
2023-02-15T09:16:10.354Z,17.90
2023-02-15T09:19:32.696Z,17.90
2023-02-15T09:22:58.069Z,17.90
2023-02-15T09:26:22.827Z,17.90
2023-02-15T09:29:45.094Z,17.80
2023-02-15T09:33:07.762Z,17.90
2023-02-15T09:36:33.726Z,17.90
2023-02-15T09:39:56.077Z,17.90
2023-02-15T09:43:49.829Z,17.80
2023-02-15T09:47:50.153Z,17.90
2023-02-15T09:51:27.441Z,17.90
2023-02-15T09:55:20.440Z,17.80
2023-02-15T09:58:51.824Z,17.90
2023-02-15T10:02:39.690Z,17.80
2023-02-15T10:06:24.939Z,17.80
2023-02-15T10:09:53.236Z,17.90
2023-02-15T10:13:30.287Z,17.90
2023-02-15T10:17:01.901Z,18.00
2023-02-15T10:20:30.127Z,18.00
2023-02-15T10:24:40.579Z,18.00
2023-02-15T10:28:12.486Z,18.00
2023-02-15T10:31:54.281Z,18.00
2023-02-15T10:35:42.964Z,18.00
2023-02-15T10:39:38.422Z,18.00
2023-02-15T10:43:41.649Z,18.10
2023-02-15T10:47:18.571Z,18.10
2023-02-15T10:50:50.565Z,18.10
2023-02-15T10:54:33.862Z,18.20
2023-02-15T10:58:14.338Z,18.10
2023-02-15T11:01:46.995Z,18.10
2023-02-15T11:05:32.654Z,18.10
2023-02-15T11:09:01.173Z,18.10
2023-02-15T11:12:28.088Z,18.10
2023-02-15T11:15:58.456Z,18.10
2023-02-15T11:19:23.467Z,18.10
2023-02-15T11:22:50.094Z,18.10
2023-02-15T11:26:47.067Z,18.10
2023-02-15T11:30:16.430Z,18.10
2023-02-15T11:33:43.026Z,18.10
2023-02-15T11:37:19.215Z,18.10
2023-02-15T11:41:06.345Z,18.10
2023-02-15T11:44:36.928Z,18.10
2023-02-15T11:48:01.680Z,18.10
2023-02-15T11:51:24.540Z,18.10
2023-02-15T11:54:53.416Z,18.10
2023-02-15T11:58:24.919Z,18.10
2023-02-15T12:01:48.199Z,18.10
2023-02-15T12:05:18.467Z,18.10
2023-02-15T12:08:47.121Z,18.10
2023-02-15T12:12:24.103Z,18.10
2023-02-15T12:15:50.747Z,18.10
2023-02-15T12:19:24.933Z,18.10
2023-02-15T12:22:53.095Z,18.10
2023-02-15T12:26:16.226Z,18.10
2023-02-15T12:29:44.206Z,18.20
2023-02-15T12:33:17.350Z,18.20
2023-02-15T12:36:55.211Z,18.20
2023-02-15T12:40:30.882Z,18.20
2023-02-15T12:44:14.090Z,18.20
2023-02-15T12:47:37.034Z,18.20
2023-02-15T12:51:09.532Z,18.20
2023-02-15T12:54:35.537Z,18.20
2023-02-15T12:58:33.889Z,18.30
2023-02-15T13:01:56.535Z,18.20
2023-02-15T13:05:37.594Z,18.20
2023-02-15T13:09:15.563Z,18.30
2023-02-15T13:12:37.791Z,18.30
2023-02-15T13:16:06.893Z,18.30
2023-02-15T13:19:32.071Z,18.20
2023-02-15T13:23:05.240Z,18.30
2023-02-15T13:26:31.707Z,18.20
2023-02-15T13:30:01.719Z,18.20
2023-02-15T13:33:34.261Z,18.30
2023-02-15T13:37:18.221Z,18.30
2023-02-15T13:40:59.654Z,18.40
2023-02-15T13:44:58.079Z,18.40
2023-02-15T13:48:50.832Z,18.40
2023-02-15T13:52:23.126Z,18.40
2023-02-15T13:55:53.194Z,18.30
2023-02-15T13:59:36.270Z,18.40
2023-02-15T14:03:01.156Z,18.40
2023-02-15T14:06:37.835Z,18.40
2023-02-15T14:10:27.293Z,18.40
2023-02-15T14:14:15.155Z,18.50
2023-02-15T14:18:13.657Z,18.50
2023-02-15T14:21:49.818Z,18.50
2023-02-15T14:25:29.546Z,18.50
2023-02-15T14:29:12.205Z,18.50
2023-02-15T14:32:39.707Z,18.50
2023-02-15T14:36:03.871Z,18.50
2023-02-15T14:40:03.141Z,18.50
2023-02-15T14:43:56.035Z,18.50
2023-02-15T14:47:28.870Z,18.50
2023-02-15T14:50:51.428Z,18.50
2023-02-15T14:54:36.267Z,18.50
2023-02-15T14:57:59.956Z,18.50
2023-02-15T15:01:32.947Z,18.50
2023-02-15T15:05:03.256Z,18.50
2023-02-15T15:08:39.385Z,18.50
2023-02-15T15:12:22.186Z,18.50
2023-02-15T15:15:48.026Z,18.50
2023-02-15T15:19:49.790Z,18.50
2023-02-15T15:23:15.986Z,18.50
2023-02-15T15:26:41.772Z,18.50
2023-02-15T15:30:24.086Z,18.50
2023-02-15T15:34:21.003Z,18.50
2023-02-15T15:37:53.439Z,18.50
2023-02-15T15:41:43.733Z,18.50
2023-02-15T15:45:15.218Z,18.50
2023-02-15T15:48:39.874Z,18.50
2023-02-15T15:52:04.187Z,18.50
2023-02-15T15:55:29.703Z,18.50
2023-02-15T15:59:00.297Z,18.50
2023-02-15T16:02:24.586Z,18.50
2023-02-15T16:05:46.940Z,18.50
2023-02-15T16:09:23.791Z,18.50
2023-02-15T16:12:48.935Z,18.50
2023-02-15T16:16:14.203Z,18.50
2023-02-15T16:19:38.737Z,18.50
2023-02-15T16:23:03.978Z,18.50
2023-02-15T16:26:28.833Z,18.40
2023-02-15T16:29:51.228Z,18.50
2023-02-15T16:33:16.166Z,18.50
2023-02-15T16:36:38.415Z,18.50
2023-02-15T16:40:01.220Z,18.40
2023-02-15T16:43:27.702Z,18.50
2023-02-15T16:46:54.797Z,18.40
2023-02-15T16:50:25.131Z,18.40
2023-02-15T16:53:49.392Z,18.40
2023-02-15T16:57:20.836Z,18.40
2023-02-15T17:00:43.628Z,18.40
2023-02-15T17:04:23.634Z,18.40
2023-02-15T17:08:04.484Z,18.40
2023-02-15T17:11:47.087Z,18.40
2023-02-15T17:15:27.154Z,18.40
2023-02-15T17:18:49.498Z,18.40
2023-02-15T17:22:19.656Z,18.40
2023-02-15T17:25:44.187Z,18.30
2023-02-15T17:29:27.937Z,18.30
2023-02-15T17:33:02.544Z,18.30
2023-02-15T17:36:29.529Z,18.30
2023-02-15T17:39:52.014Z,18.30
2023-02-15T17:43:14.276Z,18.30
2023-02-15T17:46:38.112Z,18.30
2023-02-15T17:50:04.209Z,18.30
2023-02-15T17:53:26.677Z,18.30
2023-02-15T17:56:48.960Z,18.30
2023-02-15T18:00:33.845Z,18.30
2023-02-15T18:04:15.419Z,18.30
2023-02-15T18:07:56.514Z,18.30
2023-02-15T18:11:37.554Z,18.30
2023-02-15T18:15:01.410Z,18.20
2023-02-15T18:18:24.404Z,18.30
2023-02-15T18:21:47.550Z,18.30
2023-02-15T18:25:18.972Z,18.40
2023-02-15T18:28:41.290Z,18.40
2023-02-15T18:32:07.662Z,18.40
2023-02-15T18:35:32.754Z,18.40
2023-02-15T18:38:56.386Z,18.50
2023-02-15T18:42:23.722Z,18.50
2023-02-15T18:45:46.340Z,18.60
2023-02-15T18:49:08.660Z,18.60
2023-02-15T18:52:36.090Z,18.60
2023-02-15T18:55:59.076Z,18.70
2023-02-15T18:59:22.818Z,18.70
2023-02-15T19:02:45.532Z,18.70
2023-02-15T19:06:12.012Z,18.70
2023-02-15T19:09:34.393Z,18.80
2023-02-15T19:12:57.480Z,18.70
2023-02-15T19:16:31.271Z,18.80
2023-02-15T19:19:53.857Z,18.80
2023-02-15T19:23:20.935Z,18.80
2023-02-15T19:26:46.016Z,18.80
2023-02-15T19:30:19.361Z,18.80
2023-02-15T19:33:41.721Z,18.80
2023-02-15T19:37:07.854Z,18.70
2023-02-15T19:40:33.221Z,18.80
2023-02-15T19:43:56.942Z,18.80
2023-02-15T19:47:19.678Z,18.70
2023-02-15T19:50:46.083Z,18.70
2023-02-15T19:54:48.207Z,18.70
2023-02-15T19:58:13.927Z,18.70
2023-02-15T20:01:36.214Z,18.70
2023-02-15T20:04:58.552Z,18.70
2023-02-15T20:08:22.720Z,18.70
2023-02-15T20:11:45.082Z,18.70
2023-02-15T20:15:17.666Z,18.70
2023-02-15T20:18:39.919Z,18.70
2023-02-15T20:22:02.249Z,18.70
2023-02-15T20:25:28.378Z,18.70
2023-02-15T20:28:51.035Z,18.60
2023-02-15T20:32:13.766Z,18.60
2023-02-15T20:35:36.194Z,18.60
2023-02-15T20:39:00.889Z,18.50
2023-02-15T20:42:23.504Z,18.50
2023-02-15T20:45:47.869Z,18.50
2023-02-15T20:49:10.549Z,18.50
2023-02-15T20:52:32.958Z,18.50
2023-02-15T20:55:56.330Z,18.60
2023-02-15T20:59:31.070Z,18.50
2023-02-15T21:02:58.485Z,18.50
2023-02-15T21:06:21.222Z,18.50
2023-02-15T21:09:44.471Z,18.50
2023-02-15T21:13:18.772Z,18.50
2023-02-15T21:16:42.283Z,18.50
2023-02-15T21:20:04.945Z,18.40
2023-02-15T21:23:45.586Z,18.40
2023-02-15T21:27:13.288Z,18.40
2023-02-15T21:30:35.627Z,18.40
2023-02-15T21:33:57.960Z,18.40
2023-02-15T21:37:32.714Z,18.40
2023-02-15T21:40:55.043Z,18.40
2023-02-15T21:44:41.468Z,18.40
2023-02-15T21:48:04.356Z,18.40
2023-02-15T21:51:45.054Z,18.40
2023-02-15T21:55:14.323Z,18.30
2023-02-15T21:58:37.652Z,18.30
2023-02-15T22:02:00.126Z,18.30
2023-02-15T22:05:28.129Z,18.30
2023-02-15T22:08:50.638Z,18.30
2023-02-15T22:12:17.648Z,18.30
2023-02-15T22:15:40.015Z,18.30
2023-02-15T22:19:02.261Z,18.30
2023-02-15T22:22:24.535Z,18.30
2023-02-15T22:25:58.975Z,18.30
2023-02-15T22:29:21.881Z,18.20
2023-02-15T22:32:44.197Z,18.20
2023-02-15T22:36:06.847Z,18.20
2023-02-15T22:39:29.094Z,18.20
2023-02-15T22:42:52.819Z,18.20
2023-02-15T22:46:17.565Z,18.30
2023-02-15T22:49:39.819Z,18.30
2023-02-15T22:53:03.478Z,18.20
2023-02-15T22:56:37.511Z,18.30
2023-02-15T23:00:01.282Z,18.20
2023-02-15T23:03:28.955Z,18.20
2023-02-15T23:06:53.312Z,18.20
2023-02-15T23:10:23.009Z,18.20
2023-02-15T23:13:48.201Z,18.20
2023-02-15T23:17:10.474Z,18.20
2023-02-15T23:20:32.762Z,18.20
2023-02-15T23:23:58.161Z,18.20
2023-02-15T23:27:39.211Z,18.20
2023-02-15T23:31:02.623Z,18.20
2023-02-15T23:34:29.274Z,18.20
2023-02-15T23:37:51.569Z,18.10
2023-02-15T23:41:20.248Z,18.20
2023-02-15T23:44:44.247Z,18.10
2023-02-15T23:48:37.208Z,18.10
2023-02-15T23:51:59.818Z,18.20
2023-02-15T23:55:23.071Z,18.10
2023-02-15T23:58:46.661Z,18.10
